Olympia, Washington
Current Conditions -  °F | °C
As of 8:54 PM on Wednesday 22 Oct 2014 (Local Time) from KOLM Reporting Station
Broken Clouds Broken Clouds  
Wind Chill: 13°   Ceiling: 11000
Heat Index: 13°   Visibility: 10mi
Dew Point: 12°   Wind: 13mph
Humidity: 93%   Direction: 190°S
Pressure: 29.63"   Gusts: NA
Location:  47.04°N, 122.89°W
Report Text: KOLM 230354Z AUTO 19011KT 10SM SCT038 BKN110 13/12 A2963 RMK AO2 RAE21 SLP032 P0004 T01280117 $
Loading
Personal Weather Stations






























Interactive Weather Map
Tropical Storm Tracking
New forecast layout! Learn more

10-Day Weather Forecast

Advertisements
Track Severe Weather on mobile